Terminal Aerodrome Forecast
Issued by NWS

Home | Current Version | Previous Version | Text Only | Print | Product List | Glossary On
Versions: 1 2 3 4 5 6 7 8 9 10 11 12 13 14 15
000
FTUS41 KPHI 301100
TAFPNE
TAF
KPNE 301137Z 3012/0112 15005KT P6SM BKN150
     FM301800 09006KT P6SM SCT050 BKN150
     FM010500 03008KT P6SM BKN010
     FM010800 03008KT 6SM BR OVC007=

USA.gov is the U.S. government's official web portal to all federal, state and local government web resources and services.